Broughton, Illinois
Current Conditions -  °F | °C
As of 6:55 PM on Friday 19 Dec 2014 (Local Time) from KHSB Reporting Station
Clear Clear  
Wind Chill: -1°   Ceiling: Unl
Heat Index:   Visibility: 10mi
Dew Point: -3°   Wind: 5mph
Humidity: 75%   Direction: 50°NE
Pressure: 30.29"   Gusts: NA
Location:  37.93°N, 88.46°W
Report Text: KHSB 200055Z AUTO 05004KT 10SM CLR 01/M03 A3029 RMK AO2 T00141026
Loading
Personal Weather Stations






























Interactive Weather Map New forecast layout! Learn more

10-Day Weather Forecast

Advertisements
Track Severe Weather on mobile